createdAt,value
2018-07-19T00:01:16.043Z,9.47
2018-07-19T00:03:50.489Z,8.07
2018-07-19T00:06:25.328Z,7.70
2018-07-19T00:09:00.706Z,11.20
2018-07-19T00:11:34.948Z,8.73
2018-07-19T00:14:08.943Z,12.50
2018-07-19T00:16:43.481Z,8.43
2018-07-19T00:19:17.444Z,8.83
2018-07-19T00:21:50.284Z,14.40
2018-07-19T00:24:24.591Z,6.97
2018-07-19T00:26:58.605Z,8.28
2018-07-19T00:29:34.516Z,10.53
2018-07-19T00:32:09.566Z,10.60
2018-07-19T00:34:43.725Z,7.03
2018-07-19T00:37:17.836Z,9.07
2018-07-19T00:39:52.202Z,10.77
2018-07-19T00:42:26.182Z,8.97
2018-07-19T00:44:58.589Z,8.33
2018-07-19T00:47:32.750Z,8.23
2018-07-19T00:50:06.549Z,12.35
2018-07-19T00:52:42.719Z,10.60
2018-07-19T00:55:16.870Z,6.30
2018-07-19T00:57:59.330Z,10.13
2018-07-19T01:00:35.439Z,7.67
2018-07-19T01:03:10.023Z,8.30
2018-07-19T01:05:44.346Z,8.03
2018-07-19T01:08:18.516Z,6.30
2018-07-19T01:10:53.741Z,6.40
2018-07-19T01:13:30.731Z,6.57
2018-07-19T01:16:04.946Z,9.07
2018-07-19T01:18:38.854Z,7.27
2018-07-19T01:21:11.581Z,10.23
2018-07-19T01:23:45.557Z,10.37
2018-07-19T01:26:21.232Z,9.83
2018-07-19T01:28:55.145Z,7.53
2018-07-19T01:31:29.346Z,6.53
2018-07-19T01:36:56.932Z,9.60
2018-07-19T01:39:31.221Z,8.77
2018-07-19T01:42:23.782Z,8.13
2018-07-19T01:44:58.022Z,7.40
2018-07-19T01:47:32.160Z,8.60
2018-07-19T01:50:06.698Z,6.80
2018-07-19T01:52:41.158Z,9.70
2018-07-19T01:55:17.809Z,6.77
2018-07-19T01:57:53.526Z,6.70
2018-07-19T02:00:27.756Z,7.75
2018-07-19T02:03:01.993Z,8.37
2018-07-19T02:05:34.319Z,10.77
2018-07-19T02:08:08.663Z,10.27
2018-07-19T02:10:44.512Z,10.43
2018-07-19T02:13:18.437Z,9.57
2018-07-19T02:15:52.447Z,10.25
2018-07-19T02:18:26.850Z,11.03
2018-07-19T02:21:01.091Z,7.65
2018-07-19T02:23:35.441Z,8.67
2018-07-19T02:26:09.069Z,8.27
2018-07-19T02:28:43.679Z,11.17
2018-07-19T02:47:32.117Z,10.37
2018-07-19T02:50:04.853Z,9.07
2018-07-19T02:52:39.305Z,9.27
2018-07-19T02:55:13.792Z,8.43
2018-07-19T02:57:48.051Z,9.20
2018-07-19T03:00:23.555Z,10.97
2018-07-19T03:02:58.410Z,7.83
2018-07-19T03:05:32.601Z,9.58
2018-07-19T03:08:06.953Z,11.70
2018-07-19T03:10:42.092Z,11.30
2018-07-19T03:13:16.373Z,8.97
2018-07-19T03:15:50.971Z,8.73
2018-07-19T03:18:25.357Z,6.47
2018-07-19T03:21:00.560Z,6.60
2018-07-19T03:23:37.272Z,6.57
2018-07-19T03:26:11.201Z,5.00
2018-07-19T03:28:45.502Z,8.07
2018-07-19T03:31:19.760Z,4.80
2018-07-19T03:33:54.236Z,9.37
2018-07-19T03:36:28.166Z,8.30
2018-07-19T03:39:00.969Z,6.60
2018-07-19T03:41:35.075Z,6.83
2018-07-19T03:44:08.214Z,9.00
2018-07-19T03:46:43.033Z,9.67
2018-07-19T03:49:17.341Z,11.70
2018-07-19T03:51:51.390Z,5.63
2018-07-19T03:54:25.751Z,6.40
2018-07-19T03:56:59.887Z,5.30
2018-07-19T03:59:35.809Z,4.37
2018-07-19T04:02:10.170Z,5.10
2018-07-19T04:04:44.437Z,4.13
2018-07-19T04:07:18.803Z,4.07
2018-07-19T04:09:52.986Z,3.33
2018-07-19T04:12:30.992Z,2.53
2018-07-19T04:15:06.565Z,2.70
2018-07-19T04:18:10.964Z,2.37
2018-07-19T04:20:43.544Z,3.37
2018-07-19T04:23:18.054Z,3.37
2018-07-19T04:25:52.784Z,2.27
2018-07-19T04:28:27.239Z,2.67
2018-07-19T04:31:01.398Z,2.50
2018-07-19T04:33:35.353Z,2.87
2018-07-19T04:36:09.646Z,2.60
2018-07-19T04:38:44.444Z,2.83
2018-07-19T04:41:17.030Z,3.40
2018-07-19T04:43:51.483Z,4.30
2018-07-19T04:46:25.755Z,1.77
2018-07-19T04:49:01.956Z,2.73
2018-07-19T04:51:36.336Z,1.70
2018-07-19T04:54:10.621Z,2.37
2018-07-19T04:56:44.938Z,1.40
2018-07-19T04:59:21.872Z,1.60
2018-07-19T05:01:58.343Z,2.23
2018-07-19T05:04:34.120Z,2.03
2018-07-19T05:07:09.058Z,3.17
2018-07-19T05:09:43.975Z,1.07
2018-07-19T05:12:19.083Z,1.73
2018-07-19T05:14:53.460Z,1.83
2018-07-19T05:17:28.613Z,1.20
2018-07-19T05:20:02.889Z,1.33
2018-07-19T05:22:38.082Z,2.83
2018-07-19T05:25:15.331Z,2.07
2018-07-19T05:27:49.469Z,0.60
2018-07-19T05:30:22.446Z,2.22
2018-07-19T05:32:58.056Z,0.90
2018-07-19T05:35:32.241Z,0.87
2018-07-19T05:38:06.880Z,3.00
2018-07-19T05:40:42.311Z,2.13
2018-07-19T05:43:16.688Z,3.13
2018-07-19T05:45:49.989Z,1.23
2018-07-19T05:48:24.382Z,1.73
2018-07-19T05:50:58.571Z,2.33
2018-07-19T05:53:31.107Z,2.52
2018-07-19T05:56:05.889Z,2.57
2018-07-19T05:58:38.384Z,2.15
2018-07-19T06:01:12.585Z,2.50
2018-07-19T06:03:47.059Z,2.30
2018-07-19T06:06:21.282Z,2.70
2018-07-19T06:08:56.748Z,3.60
2018-07-19T06:11:31.355Z,4.43
2018-07-19T06:14:06.071Z,3.13
2018-07-19T06:16:40.193Z,2.23
2018-07-19T06:19:14.942Z,3.60
2018-07-19T06:21:48.930Z,2.43
2018-07-19T06:24:22.960Z,1.50
2018-07-19T06:26:59.728Z,2.63
2018-07-19T06:29:33.769Z,1.90
2018-07-19T06:32:07.876Z,1.97
2018-07-19T06:34:43.287Z,1.33
2018-07-19T06:37:17.249Z,1.85
2018-07-19T06:39:52.187Z,3.17
2018-07-19T06:42:26.355Z,2.03
2018-07-19T06:45:01.165Z,2.10
2018-07-19T06:47:34.951Z,4.23
2018-07-19T06:50:09.192Z,3.23
2018-07-19T06:52:44.303Z,2.67
2018-07-19T06:55:19.322Z,4.83
2018-07-19T06:57:54.513Z,2.70
2018-07-19T07:00:29.106Z,1.90
2018-07-19T07:03:03.896Z,1.63
2018-07-19T07:05:40.905Z,3.53
2018-07-19T07:08:16.420Z,2.33
2018-07-19T07:10:50.449Z,1.70
2018-07-19T07:13:25.506Z,2.30
2018-07-19T07:16:00.599Z,3.33
2018-07-19T07:18:36.756Z,1.67
2018-07-19T07:21:10.505Z,2.23
2018-07-19T07:23:43.866Z,3.33
2018-07-19T07:26:19.109Z,3.73
2018-07-19T07:28:54.590Z,2.83
2018-07-19T07:31:28.479Z,4.03
2018-07-19T07:34:02.725Z,2.60
2018-07-19T07:36:37.725Z,1.80
2018-07-19T07:39:13.391Z,1.23
2018-07-19T07:41:48.017Z,1.98
2018-07-19T07:44:22.188Z,3.00
2018-07-19T07:46:55.035Z,1.30
2018-07-19T07:49:29.890Z,4.67
2018-07-19T07:52:04.953Z,4.47
2018-07-19T07:54:38.899Z,2.50
2018-07-19T07:57:12.955Z,3.23
2018-07-19T07:59:47.238Z,4.23
2018-07-19T08:02:21.379Z,2.03
2018-07-19T08:04:55.203Z,2.27
2018-07-19T08:07:30.393Z,3.77
2018-07-19T08:10:04.418Z,2.53
2018-07-19T08:12:38.625Z,1.70
2018-07-19T08:15:13.317Z,2.53
2018-07-19T08:17:47.538Z,2.43
2018-07-19T08:20:21.941Z,4.17
2018-07-19T08:22:55.230Z,4.03
2018-07-19T08:25:27.479Z,1.93
2018-07-19T08:28:01.121Z,1.30
2018-07-19T08:30:33.951Z,1.45
2018-07-19T08:33:07.971Z,2.07
2018-07-19T08:35:41.519Z,1.60
2018-07-19T08:38:15.829Z,3.10
2018-07-19T08:40:48.230Z,2.50
2018-07-19T08:43:22.191Z,2.20
2018-07-19T08:45:55.816Z,4.97
2018-07-19T08:48:29.226Z,3.03
2018-07-19T08:51:03.329Z,1.30
2018-07-19T08:53:37.364Z,1.02
2018-07-19T08:56:11.445Z,1.53
2018-07-19T08:58:46.252Z,1.60
2018-07-19T09:01:20.182Z,0.53
2018-07-19T09:03:54.187Z,1.97
2018-07-19T09:06:28.295Z,2.83
2018-07-19T09:09:03.680Z,2.97
2018-07-19T09:11:37.912Z,1.63
2018-07-19T09:14:12.360Z,3.70
2018-07-19T09:16:46.710Z,1.63
2018-07-19T09:19:19.251Z,2.87
2018-07-19T09:21:54.118Z,1.50
2018-07-19T09:24:30.258Z,0.83
2018-07-19T09:27:04.583Z,1.83
2018-07-19T09:29:38.651Z,2.03
2018-07-19T09:32:14.560Z,3.00
2018-07-19T09:34:48.759Z,1.47
2018-07-19T09:37:23.275Z,4.10
2018-07-19T09:39:57.877Z,1.47
2018-07-19T09:42:33.611Z,1.33
2018-07-19T09:45:06.701Z,0.90
2018-07-19T09:47:41.351Z,0.97
2018-07-19T09:50:15.652Z,3.70
2018-07-19T09:52:49.740Z,1.70
2018-07-19T09:55:23.036Z,1.50
2018-07-19T09:57:57.476Z,2.00
2018-07-19T10:00:35.748Z,2.10
2018-07-19T10:03:10.439Z,2.50
2018-07-19T10:05:44.732Z,1.87
2018-07-19T10:08:19.232Z,3.07
2018-07-19T10:10:54.167Z,2.13
2018-07-19T10:13:28.874Z,3.50
2018-07-19T10:16:01.702Z,2.70
2018-07-19T10:18:36.176Z,1.73
2018-07-19T10:21:08.613Z,2.33
2018-07-19T10:23:44.272Z,3.20
2018-07-19T10:26:19.277Z,2.97
2018-07-19T10:28:53.944Z,1.47
2018-07-19T10:31:28.434Z,1.03
2018-07-19T10:34:01.180Z,1.52
2018-07-19T10:36:35.596Z,2.70
2018-07-19T10:39:11.939Z,2.02
2018-07-19T10:41:46.937Z,2.37
2018-07-19T10:44:22.602Z,1.40
2018-07-19T10:46:57.380Z,2.27
2018-07-19T10:49:31.317Z,1.53
2018-07-19T10:52:08.062Z,2.37
2018-07-19T10:54:40.604Z,2.97
2018-07-19T10:57:14.631Z,1.83
2018-07-19T10:59:48.939Z,1.83
2018-07-19T11:02:23.017Z,1.53
2018-07-19T11:04:56.914Z,2.03
2018-07-19T11:07:29.548Z,1.32
2018-07-19T11:10:04.382Z,1.45
2018-07-19T11:12:39.281Z,2.30
2018-07-19T11:15:14.020Z,1.20
2018-07-19T11:17:48.160Z,1.13
2018-07-19T11:20:21.790Z,3.80
2018-07-19T11:22:55.950Z,1.23
2018-07-19T11:25:32.342Z,1.50
2018-07-19T11:28:06.585Z,1.30
2018-07-19T11:30:40.092Z,2.93
2018-07-19T11:33:14.031Z,1.40
2018-07-19T11:35:48.271Z,3.07
2018-07-19T11:38:23.002Z,1.70
2018-07-19T11:40:56.923Z,3.03
2018-07-19T11:43:31.019Z,1.73
2018-07-19T11:46:05.131Z,1.57
2018-07-19T11:48:39.068Z,2.67
2018-07-19T11:51:13.039Z,3.20
2018-07-19T11:53:49.848Z,2.20
2018-07-19T11:56:23.884Z,2.67
2018-07-19T11:58:56.466Z,2.40
2018-07-19T12:01:29.347Z,2.57
2018-07-19T12:04:03.864Z,3.43
2018-07-19T12:06:37.331Z,3.07
2018-07-19T12:09:15.397Z,2.60
2018-07-19T12:11:50.033Z,3.27
2018-07-19T12:14:26.887Z,3.60
2018-07-19T12:17:00.678Z,3.73
2018-07-19T12:19:35.430Z,2.23
2018-07-19T12:22:09.143Z,2.95
2018-07-19T12:24:43.476Z,4.13
2018-07-19T12:27:18.492Z,4.60
2018-07-19T12:29:52.219Z,2.13
2018-07-19T12:32:26.374Z,2.63
2018-07-19T12:35:02.408Z,3.03
2018-07-19T12:37:36.461Z,3.57
2018-07-19T12:40:10.742Z,2.10
2018-07-19T12:42:44.733Z,2.97
2018-07-19T12:45:19.138Z,2.12
2018-07-19T12:47:52.986Z,4.17
2018-07-19T12:50:27.380Z,3.37
2018-07-19T12:53:01.175Z,4.60
2018-07-19T12:55:36.244Z,3.57
2018-07-19T12:58:10.089Z,6.03
2018-07-19T13:00:43.755Z,1.93
2018-07-19T13:03:18.372Z,2.40
2018-07-19T13:05:52.415Z,2.30
2018-07-19T13:08:27.602Z,3.50
2018-07-19T13:11:01.285Z,5.47
2018-07-19T13:13:36.384Z,2.40
2018-07-19T13:16:10.952Z,2.53
2018-07-19T13:18:45.594Z,2.27
2018-07-19T13:21:19.523Z,2.00
2018-07-19T13:23:54.818Z,2.53
2018-07-19T13:26:28.849Z,3.27
2018-07-19T13:29:02.732Z,3.58
2018-07-19T13:31:35.250Z,3.43
2018-07-19T13:34:09.222Z,1.57
2018-07-19T13:36:43.433Z,2.33
2018-07-19T13:39:16.578Z,3.30
2018-07-19T13:41:50.598Z,1.57
2018-07-19T13:44:23.547Z,2.10
2018-07-19T13:46:57.391Z,2.33
2018-07-19T13:49:31.338Z,2.43
2018-07-19T13:52:05.101Z,3.17
2018-07-19T13:54:47.646Z,1.97
2018-07-19T13:57:21.514Z,2.47
2018-07-19T13:59:56.136Z,2.57
2018-07-19T14:02:30.324Z,2.30
2018-07-19T14:05:04.174Z,1.43
2018-07-19T14:07:38.072Z,1.77
2018-07-19T14:10:13.539Z,3.70
2018-07-19T14:12:47.503Z,1.73
2018-07-19T14:15:21.542Z,1.50
2018-07-19T14:17:56.756Z,1.63
2018-07-19T14:20:32.470Z,4.23
2018-07-19T14:23:05.257Z,2.60
2018-07-19T14:25:39.744Z,2.63
2018-07-19T14:28:17.536Z,1.30
2018-07-19T14:30:51.818Z,1.47
2018-07-19T14:33:26.850Z,1.90
2018-07-19T14:36:01.401Z,1.47
2018-07-19T14:38:35.799Z,1.95
2018-07-19T14:41:09.970Z,1.57
2018-07-19T14:43:42.358Z,1.90
2018-07-19T14:46:16.606Z,2.03
2018-07-19T14:48:51.870Z,2.03
2018-07-19T14:51:25.706Z,2.73
2018-07-19T14:54:00.739Z,1.97
2018-07-19T14:56:36.342Z,3.62
2018-07-19T14:59:10.356Z,1.83
2018-07-19T15:01:44.497Z,2.57
2018-07-19T15:04:16.604Z,2.90
2018-07-19T15:06:52.357Z,2.43
2018-07-19T15:09:28.972Z,2.97
2018-07-19T15:12:05.093Z,3.33
2018-07-19T15:14:38.874Z,3.40
2018-07-19T15:17:12.751Z,3.83
2018-07-19T15:19:48.885Z,3.40
2018-07-19T15:22:23.350Z,3.20
2018-07-19T15:24:57.647Z,5.33
2018-07-19T15:27:32.067Z,4.13
2018-07-19T15:30:06.108Z,4.37
2018-07-19T15:32:40.278Z,3.62
2018-07-19T15:35:16.244Z,4.03
2018-07-19T15:37:50.108Z,3.73
2018-07-19T15:40:22.964Z,5.37
2018-07-19T15:42:57.041Z,2.97
2018-07-19T15:45:31.793Z,4.40
2018-07-19T15:48:05.885Z,4.67
2018-07-19T15:50:40.405Z,4.30
2018-07-19T15:53:14.386Z,5.50
2018-07-19T15:55:46.955Z,5.13
2018-07-19T15:58:21.964Z,4.23
2018-07-19T16:03:39.849Z,4.92
2018-07-19T16:06:30.726Z,5.67
2018-07-19T16:09:05.350Z,5.67
2018-07-19T16:11:38.093Z,8.95
2018-07-19T16:14:14.191Z,6.10
2018-07-19T16:16:50.884Z,12.03
2018-07-19T16:19:25.173Z,9.43
2018-07-19T16:22:02.439Z,7.97
2018-07-19T16:24:36.435Z,7.72
2018-07-19T16:27:10.702Z,6.90
2018-07-19T16:29:44.952Z,8.07
2018-07-19T16:32:18.369Z,9.73
2018-07-19T16:34:52.409Z,7.87
2018-07-19T16:37:26.393Z,8.03
2018-07-19T16:40:01.475Z,9.93
2018-07-19T16:42:35.804Z,6.25
2018-07-19T16:45:09.710Z,6.10
2018-07-19T16:47:43.854Z,7.35
2018-07-19T16:50:18.639Z,5.00
2018-07-19T16:52:54.140Z,7.67
2018-07-19T16:55:28.122Z,7.40
2018-07-19T16:58:02.362Z,6.93
2018-07-19T17:00:37.465Z,8.33
2018-07-19T17:03:12.309Z,9.93
2018-07-19T17:05:46.829Z,9.07
2018-07-19T17:08:19.634Z,7.47
2018-07-19T17:10:54.989Z,7.23
2018-07-19T17:13:29.098Z,6.83
2018-07-19T17:16:03.101Z,6.37
2018-07-19T17:18:37.821Z,5.50
2018-07-19T17:21:12.881Z,7.93
2018-07-19T17:23:48.725Z,6.97
2018-07-19T17:26:22.961Z,6.57
2018-07-19T17:28:57.002Z,6.70
2018-07-19T17:31:31.221Z,8.43
2018-07-19T17:34:06.315Z,7.00
2018-07-19T17:36:40.788Z,8.47
2018-07-19T17:39:15.216Z,7.93
2018-07-19T17:41:48.907Z,6.40
2018-07-19T17:44:21.712Z,6.70
2018-07-19T17:46:56.129Z,9.40
2018-07-19T17:49:30.509Z,5.77
2018-07-19T17:52:04.478Z,8.63
2018-07-19T17:54:39.541Z,9.50
2018-07-19T17:57:13.430Z,8.57
2018-07-19T17:59:48.427Z,6.63
2018-07-19T18:02:22.573Z,4.53
2018-07-19T18:16:40.964Z,6.37
2018-07-19T18:19:15.190Z,8.35
2018-07-19T18:21:49.520Z,8.30
2018-07-19T18:24:26.249Z,8.63
2018-07-19T18:27:01.076Z,11.97
2018-07-19T18:29:34.927Z,8.77
2018-07-19T18:32:09.003Z,6.63
2018-07-19T18:34:43.219Z,9.67
2018-07-19T18:37:18.226Z,7.43
2018-07-19T18:39:52.223Z,7.90
2018-07-19T18:42:24.713Z,11.97
2018-07-19T18:44:57.101Z,6.93
2018-07-19T18:47:31.189Z,8.60
2018-07-19T18:50:05.039Z,8.67
2018-07-19T18:52:39.543Z,11.90
2018-07-19T18:55:12.327Z,8.73
2018-07-19T18:57:46.576Z,7.30
2018-07-19T19:00:20.517Z,8.43
2018-07-19T19:02:53.430Z,6.60
2018-07-19T19:05:27.360Z,7.37
2018-07-19T19:08:01.804Z,7.80
2018-07-19T19:10:36.940Z,9.20
2018-07-19T19:13:10.714Z,7.57
2018-07-19T19:15:44.721Z,8.20
2018-07-19T19:18:17.979Z,6.97
2018-07-19T19:20:52.914Z,9.17
2018-07-19T19:23:26.271Z,6.77
2018-07-19T19:26:01.718Z,6.30
2018-07-19T19:28:35.206Z,8.37
2018-07-19T19:31:09.131Z,8.27
2018-07-19T19:33:42.964Z,7.77
2018-07-19T19:36:18.168Z,7.73
2018-07-19T19:38:52.046Z,9.07
2018-07-19T19:41:27.810Z,10.00
2018-07-19T19:44:01.744Z,7.07
2018-07-19T19:46:37.253Z,6.90
2018-07-19T19:49:12.386Z,8.37
2018-07-19T19:51:52.777Z,11.00
2018-07-19T19:54:26.629Z,8.60
2018-07-19T19:57:02.949Z,7.30
2018-07-19T19:59:37.246Z,8.10
2018-07-19T20:02:11.210Z,7.30
2018-07-19T20:09:46.206Z,9.33
2018-07-19T20:12:27.327Z,6.43
2018-07-19T20:15:01.531Z,8.03
2018-07-19T20:17:35.759Z,9.60
2018-07-19T20:20:11.187Z,6.90
2018-07-19T20:22:45.272Z,6.93
2018-07-19T20:25:21.938Z,8.90
2018-07-19T20:27:57.089Z,7.00
2018-07-19T20:30:32.581Z,11.07
2018-07-19T20:33:07.676Z,9.17
2018-07-19T20:35:43.197Z,8.30
2018-07-19T20:38:15.494Z,9.80
2018-07-19T20:40:49.898Z,9.20
2018-07-19T20:43:23.681Z,13.93
2018-07-19T20:45:55.916Z,9.63
2018-07-19T20:48:30.166Z,8.60
2018-07-19T20:51:04.017Z,6.72
2018-07-19T20:54:08.999Z,9.57
2018-07-19T20:56:42.965Z,11.43
2018-07-19T20:59:17.343Z,9.63
2018-07-19T21:01:49.997Z,11.17
2018-07-19T21:04:24.052Z,13.20
2018-07-19T21:07:01.638Z,10.17
2018-07-19T21:09:36.637Z,14.70
2018-07-19T21:12:10.690Z,10.30
2018-07-19T21:14:50.287Z,9.97
2018-07-19T21:17:24.058Z,9.53
2018-07-19T21:19:59.568Z,13.58
2018-07-19T21:22:31.549Z,7.42
2018-07-19T21:25:04.014Z,11.20
2018-07-19T21:27:38.160Z,7.80
2018-07-19T21:30:12.893Z,9.00
2018-07-19T21:32:46.956Z,8.63
2018-07-19T21:35:20.692Z,10.33
2018-07-19T21:37:54.665Z,5.83
2018-07-19T21:40:28.828Z,10.45
2018-07-19T21:43:01.461Z,10.32
2018-07-19T21:45:36.230Z,9.33
2018-07-19T21:48:10.604Z,8.40
2018-07-19T21:50:44.904Z,9.17
2018-07-19T21:53:19.242Z,10.13
2018-07-19T21:55:55.810Z,7.47
2018-07-19T21:58:30.724Z,6.83
2018-07-19T22:01:08.571Z,11.97
2018-07-19T22:03:42.679Z,8.83
2018-07-19T22:06:17.107Z,7.37
2018-07-19T22:08:50.908Z,6.50
2018-07-19T22:11:23.634Z,9.55
2018-07-19T22:13:57.612Z,7.37
2018-07-19T22:16:32.428Z,11.07
2018-07-19T22:19:06.636Z,11.70
2018-07-19T22:56:08.561Z,13.07
2018-07-19T22:58:42.866Z,12.37
2018-07-19T23:01:17.920Z,11.03
2018-07-19T23:03:51.835Z,12.13
2018-07-19T23:06:28.055Z,11.25
2018-07-19T23:09:01.889Z,13.40
2018-07-19T23:11:36.674Z,7.73
2018-07-19T23:14:10.849Z,11.23
2018-07-19T23:16:44.944Z,9.43
2018-07-19T23:19:19.460Z,11.50
2018-07-19T23:21:54.630Z,9.73
2018-07-19T23:24:29.503Z,10.47
2018-07-19T23:27:03.540Z,10.03
2018-07-19T23:29:38.080Z,9.48
2018-07-19T23:32:13.183Z,11.97
2018-07-19T23:34:47.855Z,15.90
2018-07-19T23:37:26.472Z,10.33
2018-07-19T23:40:03.033Z,12.35
2018-07-19T23:42:41.128Z,7.87
2018-07-19T23:47:25.166Z,9.87
2018-07-19T23:49:59.078Z,8.60
2018-07-19T23:52:33.853Z,10.47
2018-07-19T23:55:08.032Z,10.97
2018-07-19T23:57:42.214Z,9.23
